createdAt,value
2018-08-19T00:03:10.978Z,20.39
2018-08-19T00:06:35.567Z,20.37
2018-08-19T00:10:00.339Z,20.30
2018-08-19T00:13:24.878Z,20.29
2018-08-19T00:16:49.348Z,20.30
2018-08-19T00:20:14.538Z,20.23
2018-08-19T00:23:44.333Z,20.23
2018-08-19T00:27:08.866Z,20.30
2018-08-19T00:30:33.542Z,20.18
2018-08-19T00:33:58.025Z,20.13
2018-08-19T00:37:22.495Z,20.20
2018-08-19T00:40:46.933Z,20.43
2018-08-19T00:44:11.360Z,20.54
2018-08-19T00:47:35.956Z,20.39
2018-08-19T00:51:00.448Z,20.28
2018-08-19T00:54:26.577Z,20.32
2018-08-19T00:57:54.444Z,20.25
2018-08-19T01:01:35.086Z,20.31
2018-08-19T01:04:59.460Z,20.40
2018-08-19T01:08:23.955Z,20.34
2018-08-19T01:11:48.432Z,20.46
2018-08-19T01:15:15.726Z,20.20
2018-08-19T01:18:40.338Z,20.07
2018-08-19T01:22:04.840Z,20.03
2018-08-19T01:25:29.336Z,20.19
2018-08-19T01:28:56.590Z,20.19
2018-08-19T01:32:22.330Z,20.04
2018-08-19T01:35:46.775Z,19.89
2018-08-19T01:39:12.716Z,19.86
2018-08-19T01:42:37.197Z,19.85
2018-08-19T01:46:01.597Z,19.80
2018-08-19T01:49:26.106Z,19.78
2018-08-19T01:52:51.185Z,19.86
2018-08-19T01:56:15.618Z,19.84
2018-08-19T01:59:40.050Z,19.86
2018-08-19T02:03:06.059Z,19.69
2018-08-19T02:06:30.479Z,19.57
2018-08-19T02:10:04.588Z,19.59
2018-08-19T02:13:29.039Z,19.73
2018-08-19T02:16:54.469Z,19.45
2018-08-19T02:20:19.016Z,19.36
2018-08-19T02:23:43.421Z,19.33
2018-08-19T02:27:07.887Z,19.28
2018-08-19T02:30:32.351Z,19.43
2018-08-19T02:33:56.782Z,19.38
2018-08-19T02:37:21.190Z,19.28
2018-08-19T02:40:45.622Z,19.17
2018-08-19T02:44:10.048Z,19.08
2018-08-19T02:47:35.111Z,19.07
2018-08-19T02:50:59.527Z,19.19
2018-08-19T02:54:23.960Z,19.11
2018-08-19T02:57:48.371Z,19.17
2018-08-19T03:01:13.720Z,19.27
2018-08-19T03:04:38.143Z,19.38
2018-08-19T03:08:03.866Z,19.08
2018-08-19T03:11:28.447Z,18.96
2018-08-19T03:14:53.218Z,18.94
2018-08-19T03:18:17.707Z,18.90
2018-08-19T03:21:42.162Z,18.84
2018-08-19T03:25:15.366Z,18.76
2018-08-19T03:28:39.792Z,18.99
2018-08-19T03:32:04.270Z,19.01
2018-08-19T03:35:28.727Z,19.12
2018-08-19T03:38:55.451Z,19.07
2018-08-19T03:42:19.878Z,19.03
2018-08-19T03:45:44.318Z,19.16
2018-08-19T03:49:08.764Z,19.29
2018-08-19T03:52:33.209Z,19.47
2018-08-19T03:55:57.682Z,19.40
2018-08-19T03:59:22.137Z,19.45
2018-08-19T04:02:46.606Z,19.44
2018-08-19T04:06:11.002Z,19.25
2018-08-19T04:09:35.395Z,19.21
2018-08-19T04:12:59.817Z,19.08
2018-08-19T04:16:24.233Z,18.92
2018-08-19T04:19:48.650Z,19.01
2018-08-19T04:23:13.126Z,18.86
2018-08-19T04:26:37.543Z,18.79
2018-08-19T04:30:01.990Z,18.59
2018-08-19T04:33:31.889Z,18.63
2018-08-19T04:36:56.671Z,18.65
2018-08-19T04:40:21.090Z,18.79
2018-08-19T04:43:46.186Z,18.80
2018-08-19T04:47:31.130Z,18.75
2018-08-19T04:50:56.705Z,18.72
2018-08-19T04:54:21.134Z,18.88
2018-08-19T04:57:45.557Z,18.75
2018-08-19T05:01:10.055Z,18.92
2018-08-19T05:04:34.434Z,18.88
2018-08-19T05:07:58.877Z,19.02
2018-08-19T05:11:23.303Z,19.05
2018-08-19T05:14:47.734Z,19.00
2018-08-19T05:18:12.244Z,19.16
2018-08-19T05:21:36.715Z,19.12
2018-08-19T05:25:01.167Z,19.11
2018-08-19T05:28:25.658Z,19.29
2018-08-19T05:31:55.319Z,19.53
2018-08-19T05:35:19.762Z,19.50
2018-08-19T05:38:45.735Z,19.46
2018-08-19T05:42:13.031Z,19.60
2018-08-19T05:45:41.546Z,19.58
2018-08-19T05:49:06.300Z,19.63
2018-08-19T05:52:31.568Z,19.60
2018-08-19T05:55:56.071Z,19.84
2018-08-19T05:59:20.521Z,19.89
2018-08-19T06:02:45.370Z,19.95
2018-08-19T06:06:09.852Z,20.00
2018-08-19T06:09:35.400Z,20.23
2018-08-19T06:12:59.875Z,20.30
2018-08-19T06:16:24.328Z,20.37
2018-08-19T06:19:48.793Z,20.52
2018-08-19T06:23:13.214Z,20.86
2018-08-19T06:26:37.705Z,21.36
2018-08-19T06:30:02.113Z,21.39
2018-08-19T06:33:26.547Z,21.35
2018-08-19T06:36:51.005Z,21.80
2018-08-19T06:40:17.538Z,21.26
2018-08-19T06:43:41.980Z,21.74
2018-08-19T06:47:06.500Z,21.64
2018-08-19T06:50:33.700Z,21.51
2018-08-19T06:53:58.127Z,21.46
2018-08-19T06:57:22.621Z,21.45
2018-08-19T07:00:47.052Z,21.57
2018-08-19T07:04:11.487Z,21.56
2018-08-19T07:07:35.920Z,21.68
2018-08-19T07:11:00.352Z,22.02
2018-08-19T07:14:25.319Z,21.71
2018-08-19T07:17:49.791Z,21.72
2018-08-19T07:21:14.237Z,21.54
2018-08-19T07:24:39.652Z,21.52
2018-08-19T07:28:04.089Z,21.97
2018-08-19T07:31:28.596Z,21.89
2018-08-19T07:34:52.999Z,21.84
2018-08-19T07:38:17.514Z,22.34
2018-08-19T07:41:41.962Z,22.02
2018-08-19T07:45:06.452Z,22.18
2018-08-19T07:48:30.880Z,22.07
2018-08-19T07:51:55.339Z,22.04
2018-08-19T07:55:19.737Z,22.24
2018-08-19T07:58:46.600Z,22.32
2018-08-19T08:02:11.125Z,22.06
2018-08-19T08:05:40.653Z,21.61
2018-08-19T08:09:07.540Z,21.72
2018-08-19T08:12:31.980Z,21.62
2018-08-19T08:15:57.559Z,22.13
2018-08-19T08:19:22.398Z,22.26
2018-08-19T08:22:46.853Z,22.24
2018-08-19T08:26:11.359Z,22.39
2018-08-19T08:29:35.817Z,22.15
2018-08-19T08:33:00.247Z,22.68
2018-08-19T08:36:24.680Z,22.84
2018-08-19T08:40:00.673Z,22.56
2018-08-19T08:43:25.084Z,23.13
2018-08-19T08:46:49.527Z,23.61
2018-08-19T08:50:13.956Z,23.53
2018-08-19T08:53:42.489Z,23.46
2018-08-19T08:57:06.961Z,23.19
2018-08-19T09:00:31.441Z,23.14
2018-08-19T09:03:55.868Z,23.50
2018-08-19T09:07:20.535Z,23.35
2018-08-19T09:10:45.060Z,23.45
2018-08-19T09:14:09.490Z,23.37
2018-08-19T09:17:33.927Z,22.95
2018-08-19T09:20:58.393Z,23.58
2018-08-19T09:24:22.826Z,23.78
2018-08-19T09:27:47.256Z,23.91
2018-08-19T09:31:11.760Z,23.65
2018-08-19T09:34:36.184Z,23.80
2018-08-19T09:38:05.763Z,23.76
2018-08-19T09:41:30.199Z,23.57
2018-08-19T09:44:54.603Z,23.89
2018-08-19T09:48:19.181Z,24.34
2018-08-19T09:51:43.623Z,24.56
2018-08-19T09:55:10.012Z,24.29
2018-08-19T09:58:34.416Z,23.87
2018-08-19T10:01:58.852Z,24.38
2018-08-19T10:05:25.593Z,24.95
2018-08-19T10:08:50.039Z,24.78
2018-08-19T10:12:16.031Z,25.21
2018-08-19T10:15:40.464Z,25.91
2018-08-19T10:19:04.945Z,26.20
2018-08-19T10:22:33.411Z,25.90
2018-08-19T10:25:57.836Z,26.17
2018-08-19T10:29:22.269Z,26.18
2018-08-19T10:32:50.541Z,25.91
2018-08-19T10:36:14.971Z,27.59
2018-08-19T10:39:39.400Z,29.58
2018-08-19T10:43:07.901Z,31.02
2018-08-19T10:46:32.313Z,29.08
2018-08-19T10:50:05.672Z,28.21
2018-08-19T10:53:30.162Z,28.48
2018-08-19T10:56:55.835Z,29.67
2018-08-19T11:00:27.457Z,29.43
2018-08-19T11:03:51.896Z,29.44
2018-08-19T11:07:16.337Z,30.72
2018-08-19T11:10:40.782Z,30.61
2018-08-19T11:14:10.129Z,31.55
2018-08-19T11:17:34.523Z,32.57
2018-08-19T11:21:06.006Z,32.95
2018-08-19T11:24:30.423Z,31.29
2018-08-19T11:27:55.536Z,32.58
2018-08-19T11:31:27.213Z,34.10
2018-08-19T11:34:51.630Z,31.87
2018-08-19T11:38:16.050Z,33.26
2018-08-19T11:41:40.504Z,32.24
2018-08-19T11:45:05.020Z,32.45
2018-08-19T11:48:29.457Z,33.98
2018-08-19T11:52:04.647Z,31.76
2018-08-19T11:55:29.239Z,32.19
2018-08-19T11:58:53.669Z,33.98
2018-08-19T12:02:20.939Z,32.25
2018-08-19T12:05:45.321Z,33.44
2018-08-19T12:09:10.994Z,32.90
2018-08-19T12:12:49.156Z,33.60
2018-08-19T12:16:13.619Z,34.23
2018-08-19T12:19:43.843Z,33.74
2018-08-19T12:23:10.035Z,35.67
2018-08-19T12:26:38.525Z,36.21
2018-08-19T12:30:11.850Z,36.87
2018-08-19T12:33:36.303Z,35.94
2018-08-19T12:37:00.793Z,34.05
2018-08-19T12:40:25.282Z,32.66
2018-08-19T12:43:53.835Z,33.81
2018-08-19T12:47:23.266Z,35.11
2018-08-19T12:50:53.514Z,33.71
2018-08-19T12:54:17.938Z,34.99
2018-08-19T12:57:43.194Z,35.30
2018-08-19T13:01:07.594Z,36.54
2018-08-19T13:04:32.050Z,36.33
2018-08-19T13:07:56.522Z,36.06
2018-08-19T13:11:21.721Z,36.18
2018-08-19T13:14:46.810Z,38.04
2018-08-19T13:18:11.952Z,39.01
2018-08-19T13:21:36.453Z,38.94
2018-08-19T13:25:00.942Z,39.43
2018-08-19T13:28:25.416Z,38.78
2018-08-19T13:31:49.913Z,36.57
2018-08-19T13:35:14.367Z,36.01
2018-08-19T13:38:40.169Z,38.69
2018-08-19T13:42:04.642Z,39.30
2018-08-19T13:45:29.108Z,39.01
2018-08-19T13:48:53.876Z,36.94
2018-08-19T13:52:18.480Z,37.70
2018-08-19T13:55:42.935Z,39.34
2018-08-19T13:59:07.398Z,36.66
2018-08-19T14:02:31.823Z,36.87
2018-08-19T14:05:56.242Z,36.88
2018-08-19T14:09:20.689Z,37.08
2018-08-19T14:12:45.195Z,37.50
2018-08-19T14:16:09.659Z,37.30
2018-08-19T14:19:34.090Z,39.42
2018-08-19T14:22:58.538Z,38.59
2018-08-19T14:26:22.994Z,38.11
2018-08-19T14:29:47.393Z,38.13
2018-08-19T14:33:11.921Z,36.12
2018-08-19T14:36:36.379Z,37.46
2018-08-19T14:40:01.687Z,37.31
2018-08-19T14:43:26.029Z,37.43
2018-08-19T14:46:52.752Z,38.16
2018-08-19T14:50:19.491Z,38.51
2018-08-19T14:53:43.939Z,39.25
2018-08-19T14:57:08.411Z,39.23
2018-08-19T15:00:32.868Z,39.23
2018-08-19T15:03:58.210Z,40.12
2018-08-19T15:07:22.639Z,40.12
2018-08-19T15:10:51.184Z,39.17
2018-08-19T15:14:17.077Z,39.35
2018-08-19T15:17:46.433Z,39.71
2018-08-19T15:21:10.868Z,39.79
2018-08-19T15:24:35.301Z,39.46
2018-08-19T15:27:59.689Z,38.47
2018-08-19T15:31:28.128Z,38.37
2018-08-19T15:34:52.690Z,38.76
2018-08-19T15:38:17.124Z,39.19
2018-08-19T15:41:41.607Z,39.01
2018-08-19T15:45:06.035Z,39.08
2018-08-19T15:48:30.552Z,39.49
2018-08-19T15:51:55.045Z,37.43
2018-08-19T15:55:19.589Z,37.89
2018-08-19T15:58:44.168Z,38.61
2018-08-19T16:02:08.548Z,39.37
2018-08-19T16:05:33.038Z,39.31
2018-08-19T16:08:57.509Z,39.44
2018-08-19T16:12:22.073Z,38.11
2018-08-19T16:15:46.433Z,36.79
2018-08-19T16:19:10.854Z,36.09
2018-08-19T16:22:35.285Z,36.08
2018-08-19T16:25:59.752Z,35.02
2018-08-19T16:29:24.226Z,35.10
2018-08-19T16:32:48.640Z,35.00
2018-08-19T16:36:13.107Z,34.59
2018-08-19T16:39:37.546Z,34.43
2018-08-19T16:43:01.954Z,34.30
2018-08-19T16:46:26.412Z,33.58
2018-08-19T16:49:50.848Z,32.06
2018-08-19T16:53:15.293Z,32.48
2018-08-19T16:56:39.699Z,32.08
2018-08-19T17:00:04.424Z,32.81
2018-08-19T17:03:37.596Z,32.15
2018-08-19T17:07:02.044Z,32.58
2018-08-19T17:10:27.808Z,31.65
2018-08-19T17:13:52.272Z,31.49
2018-08-19T17:17:16.676Z,30.75
2018-08-19T17:20:41.513Z,30.84
2018-08-19T17:24:05.974Z,30.43
2018-08-19T17:27:30.392Z,30.70
2018-08-19T17:30:55.489Z,30.32
2018-08-19T17:34:20.480Z,30.21
2018-08-19T17:37:44.972Z,30.12
2018-08-19T17:41:09.456Z,29.89
2018-08-19T17:44:33.906Z,29.89
2018-08-19T17:47:58.479Z,29.90
2018-08-19T17:51:33.276Z,30.10
2018-08-19T17:54:57.680Z,29.64
2018-08-19T17:58:22.096Z,29.60
2018-08-19T18:01:46.501Z,29.54
2018-08-19T18:05:10.977Z,29.50
2018-08-19T18:08:35.377Z,29.11
2018-08-19T18:12:04.117Z,29.17
2018-08-19T18:15:28.551Z,28.89
2018-08-19T18:18:53.006Z,28.54
2018-08-19T18:22:20.867Z,28.57
2018-08-19T18:25:50.182Z,28.70
2018-08-19T18:29:17.158Z,28.68
2018-08-19T18:32:41.720Z,28.17
2018-08-19T18:36:07.135Z,28.44
2018-08-19T18:39:31.546Z,28.22
2018-08-19T18:42:55.984Z,28.10
2018-08-19T18:46:20.939Z,28.19
2018-08-19T18:49:45.432Z,28.19
2018-08-19T18:53:11.186Z,28.15
2018-08-19T18:56:35.632Z,28.11
2018-08-19T19:00:00.051Z,27.65
2018-08-19T19:03:24.487Z,27.77
2018-08-19T19:06:49.001Z,27.60
2018-08-19T19:10:13.495Z,27.53
2018-08-19T19:13:37.983Z,27.59
2018-08-19T19:17:02.483Z,27.28
2018-08-19T19:20:26.853Z,27.41
2018-08-19T19:23:51.239Z,27.28
2018-08-19T19:27:15.732Z,27.24
2018-08-19T19:30:40.217Z,27.07
2018-08-19T19:34:09.822Z,26.97
2018-08-19T19:37:34.608Z,26.86
2018-08-19T19:41:05.024Z,26.75
2018-08-19T19:44:33.607Z,26.65
2018-08-19T19:47:58.135Z,26.74
2018-08-19T19:51:22.562Z,26.22
2018-08-19T19:54:47.026Z,26.06
2018-08-19T19:58:11.532Z,26.00
2018-08-19T20:01:36.176Z,25.93
2018-08-19T20:05:01.379Z,26.00
2018-08-19T20:08:26.972Z,26.22
2018-08-19T20:11:51.380Z,26.07
2018-08-19T20:15:15.792Z,26.05
2018-08-19T20:18:40.539Z,25.89
2018-08-19T20:22:04.973Z,25.81
2018-08-19T20:25:29.526Z,25.67
2018-08-19T20:28:55.468Z,25.90
2018-08-19T20:32:20.918Z,25.94
2018-08-19T20:35:45.907Z,25.93
2018-08-19T20:39:10.331Z,25.96
2018-08-19T20:42:34.789Z,25.90
2018-08-19T20:45:59.347Z,25.85
2018-08-19T20:49:24.112Z,25.52
2018-08-19T20:52:49.408Z,25.26
2018-08-19T20:56:13.872Z,25.25
2018-08-19T20:59:38.873Z,25.01
2018-08-19T21:03:03.475Z,25.17
2018-08-19T21:06:27.876Z,24.95
2018-08-19T21:09:52.343Z,24.98
2018-08-19T21:13:18.429Z,24.72
2018-08-19T21:16:42.892Z,24.95
2018-08-19T21:20:07.350Z,25.06
2018-08-19T21:23:31.900Z,25.04
2018-08-19T21:27:00.692Z,25.09
2018-08-19T21:30:25.328Z,25.16
2018-08-19T21:33:49.728Z,25.07
2018-08-19T21:37:21.360Z,24.96
2018-08-19T21:40:45.800Z,24.79
2018-08-19T21:44:10.292Z,24.90
2018-08-19T21:47:34.723Z,25.13
2018-08-19T21:50:59.275Z,25.08
2018-08-19T21:54:23.767Z,25.00
2018-08-19T21:57:48.248Z,25.15
2018-08-19T22:01:17.900Z,24.96
2018-08-19T22:04:42.372Z,25.29
2018-08-19T22:08:06.993Z,25.51
2018-08-19T22:11:31.441Z,25.63
2018-08-19T22:14:56.141Z,25.48
2018-08-19T22:18:22.212Z,25.41
2018-08-19T22:21:46.800Z,25.60
2018-08-19T22:25:11.801Z,25.67
2018-08-19T22:28:36.624Z,25.51
2018-08-19T22:32:01.223Z,25.56
2018-08-19T22:35:25.834Z,25.36
2018-08-19T22:38:51.230Z,25.25
2018-08-19T22:42:16.040Z,25.21
2018-08-19T22:45:40.593Z,25.43
2018-08-19T22:49:05.544Z,25.16
2018-08-19T22:52:30.090Z,25.17
2018-08-19T22:55:55.000Z,25.34
2018-08-19T22:59:19.442Z,25.48
2018-08-19T23:02:44.002Z,25.18
2018-08-19T23:06:08.650Z,25.02
2018-08-19T23:09:33.223Z,25.20
2018-08-19T23:12:58.674Z,25.15
2018-08-19T23:16:23.212Z,25.35
2018-08-19T23:19:51.767Z,25.24
2018-08-19T23:23:16.193Z,25.06
2018-08-19T23:26:40.632Z,24.86
2018-08-19T23:30:05.544Z,24.71
2018-08-19T23:33:30.108Z,24.60
2018-08-19T23:36:54.620Z,24.76
2018-08-19T23:40:19.167Z,24.69
2018-08-19T23:43:43.578Z,24.96
2018-08-19T23:47:08.002Z,24.76
2018-08-19T23:50:32.425Z,24.51
2018-08-19T23:53:56.855Z,24.64
2018-08-19T23:57:21.334Z,24.66
